• Join FlightAware (Why Join?)
  • Login
  • US Flag GB Flag 
06:43 EST


 

Airport Tracker/Info


-or-


 

Live Flight TrackerFlight Track Log ✈ SBS3563 ✈ 15-Mar-2014 ✈ TIST / STT - TJSJ / SJU

Flight Track Log - Related Links

Times and Time Zones

All times are in EDT time to prevent confusion due to time zone crossing. See the SBS3563 flight status page for this flight to view local times or setup timezone preferences in your user account.

Time Position Orientation Groundspeed Altitude Reporting Facility
EDT Latitude Longitude Course Direction KTS MPH feet Rate Location/Type
14:41 18.3333 -64.9833 270° West 140 161 600  Level San Juan Center
14:42 18.3333 -65.0500 270° West 190 219 1,900 1,320 Climbing San Juan Center
14:43 18.3333 -65.1000 270° West 180 207 3,300 1,320 Climbing San Juan Center
14:44 18.3333 -65.1500 270° West 180 207 4,600 1,140 Climbing San Juan Center
14:45 18.3333 -65.2000 270° West 180 207 5,700 660 Climbing San Juan Center
14:46 18.3333 -65.2667 270° West 210 242 6,000 120 Climbing San Juan Center
14:47 18.3500 -65.3167 289° West 190 219 6,000  Level San Juan Center
14:48 18.3500 -65.3833 270° West 200 230 6,000  Level San Juan Center
14:49 18.3500 -65.4333 270° West 200 230 6,000  Level San Juan Center
14:50 18.3500 -65.5000 270° West 200 230 6,000  Level San Juan Center
14:51 18.3667 -65.5500 289° West 190 219 6,000  Level San Juan Center
14:52 18.3667 -65.6167 270° West 190 219 6,000  Level San Juan Center
14:53 18.3667 -65.6667 270° West 200 230 6,000  Level San Juan Center
14:54 18.3667 -65.7333 270° West 190 219 6,000 -60 Level San Juan Center
14:55 18.3667 -65.7833 270° West 200 230 5,900 -540 Descending San Juan Center
14:56 18.3667 -65.8333 270° West 180 207 5,000 -900 Descending San Juan Center
14:57 18.3667 -65.8833 270° West 170 196 4,100 -900 Descending San Juan Center
14:58 18.3667 -65.9333 270° West 180 207 3,200 -840 Descending San Juan Center
14:59 18.3667 -66.0000 270° West 190 219 2,500 -360 Descending San Juan Center
15:00 18.3667 -66.0500 270° West 170 196 2,500 -300 Level San Juan Center
15:01 18.3833 -66.1000 289° West 180 207 1,900 -600 Descending San Juan Center
15:02 18.4167 -66.0833 25° Northeast 150 173 1,300 -600 Descending San Juan Center
15:03 18.4333 -66.0500 62° Northeast 140 161 800 -600 Descending San Juan Center
15:04 18.4333 -66.0167 90° East 110 127 200 -600 Descending San Juan Center